DLH722A EDDM-ZBAA
Flight info
| Callsign | DLH722A |
|---|---|
| Flight time | N/A |
| Altitude | 37000 |
| Route | KIRDI4N KIRDI DCT BUWOQ DCT OBFEZ DCT STEIN DCT TEGRI DCT LUGEB DCT UDROS UM859 KARDE UN644 ROLIN DCT TAGAR DCT BT DCT BARAD M747 SUBUT T916 BALUN/K0896F370 T916 PIGAL M610 RULAD/K0880S1130 A343 POSOT B215 FKG W188 LIKMI W270 DKO W69 GUVBA GUVBA7X |
| Aircraft | A359/H-SADE2E3GHIJ1J2J3J4J5M1P2RWXYZ/LB1D1 |
Departure
| Time | N/A |
|---|---|
| Airport | Munich Airport (EDDM) |
Arrival
| Time | 2026-05-07 08:34 |
|---|---|
| Airport | Beijing Capital International Airport (ZBAA) |
| Time | Latitude | Longitude | Altitude | Speed | Heading |
|---|---|---|---|---|---|
| 2026-05-07 07:52 | 40.62636 | 111.78041 | 37212 ft | 521 kts | 88° |
| 2026-05-07 07:52 | 40.62450 | 111.87596 | 37213 ft | 521 kts | 88° |
| 2026-05-07 07:53 | 40.62270 | 111.97093 | 37216 ft | 521 kts | 88° |
| 2026-05-07 07:53 | 40.62067 | 112.06654 | 37213 ft | 521 kts | 88° |
| 2026-05-07 07:54 | 40.61854 | 112.16190 | 37209 ft | 521 kts | 88° |
| 2026-05-07 07:54 | 40.61632 | 112.25698 | 37209 ft | 521 kts | 88° |
| 2026-05-07 07:55 | 40.61404 | 112.35229 | 37208 ft | 520 kts | 88° |
| 2026-05-07 07:55 | 40.61173 | 112.44708 | 37193 ft | 520 kts | 88° |
| 2026-05-07 07:56 | 40.60897 | 112.54252 | 37199 ft | 521 kts | 90° |
| 2026-05-07 07:56 | 40.60336 | 112.63739 | 37195 ft | 522 kts | 91° |
| 2026-05-07 07:57 | 40.59714 | 112.73277 | 37185 ft | 522 kts | 91° |
| 2026-05-07 07:57 | 40.58963 | 112.82803 | 37184 ft | 523 kts | 93° |
| 2026-05-07 07:58 | 40.58242 | 112.92262 | 37172 ft | 522 kts | 92° |
| 2026-05-07 07:58 | 40.57613 | 113.01792 | 37172 ft | 522 kts | 91° |
| 2026-05-07 07:59 | 40.56992 | 113.11272 | 37175 ft | 522 kts | 91° |
| 2026-05-07 07:59 | 40.56348 | 113.20817 | 37167 ft | 522 kts | 92° |
| 2026-05-07 08:00 | 40.55696 | 113.30283 | 37168 ft | 522 kts | 92° |
| 2026-05-07 08:00 | 40.55029 | 113.39824 | 37154 ft | 522 kts | 92° |
| 2026-05-07 08:01 | 40.54361 | 113.49269 | 37157 ft | 522 kts | 92° |
| 2026-05-07 08:01 | 40.53678 | 113.58808 | 37157 ft | 522 kts | 92° |
| 2026-05-07 08:02 | 40.52993 | 113.68278 | 37153 ft | 522 kts | 92° |
| 2026-05-07 08:02 | 40.52295 | 113.77794 | 37152 ft | 522 kts | 92° |
| 2026-05-07 08:03 | 40.51587 | 113.87332 | 37143 ft | 522 kts | 92° |
| 2026-05-07 08:03 | 40.50881 | 113.96779 | 37136 ft | 523 kts | 92° |
| 2026-05-07 08:04 | 40.50317 | 114.06340 | 37143 ft | 521 kts | 89° |
| 2026-05-07 08:04 | 40.49974 | 114.15804 | 37131 ft | 521 kts | 89° |
| 2026-05-07 08:05 | 40.49583 | 114.25340 | 37124 ft | 521 kts | 90° |
| 2026-05-07 08:05 | 40.49174 | 114.34810 | 37125 ft | 521 kts | 90° |
| 2026-05-07 08:06 | 40.48749 | 114.44350 | 37120 ft | 521 kts | 90° |
| 2026-05-07 08:06 | 40.48319 | 114.53869 | 36906 ft | 533 kts | 90° |
| 2026-05-07 08:06 | 40.48094 | 114.58789 | 36815 ft | 544 kts | 90° |
| 2026-05-07 08:07 | 40.47941 | 114.62102 | 36759 ft | 551 kts | 90° |
| 2026-05-07 08:07 | 40.47625 | 114.68835 | 36542 ft | 555 kts | 90° |
| 2026-05-07 08:07 | 40.47462 | 114.72243 | 36181 ft | 553 kts | 90° |
| 2026-05-07 08:07 | 40.47219 | 114.77301 | 35502 ft | 553 kts | 90° |
| 2026-05-07 08:08 | 40.46979 | 114.82273 | 34819 ft | 553 kts | 90° |
| 2026-05-07 08:08 | 40.46732 | 114.87325 | 34256 ft | 551 kts | 90° |
| 2026-05-07 08:08 | 40.46485 | 114.92345 | 33635 ft | 548 kts | 90° |
| 2026-05-07 08:08 | 40.46240 | 114.97258 | 33066 ft | 543 kts | 90° |
| 2026-05-07 08:09 | 40.45992 | 115.02201 | 32522 ft | 538 kts | 90° |
| 2026-05-07 08:09 | 40.45746 | 115.07094 | 31969 ft | 534 kts | 90° |
| 2026-05-07 08:09 | 40.45499 | 115.11951 | 31430 ft | 529 kts | 90° |
| 2026-05-07 08:09 | 40.45255 | 115.16709 | 30901 ft | 525 kts | 90° |
| 2026-05-07 08:10 | 40.45009 | 115.21478 | 30390 ft | 520 kts | 90° |
| 2026-05-07 08:10 | 40.44763 | 115.26203 | 29800 ft | 514 kts | 90° |
| 2026-05-07 08:10 | 40.44518 | 115.30875 | 29234 ft | 508 kts | 90° |
| 2026-05-07 08:10 | 40.44283 | 115.35337 | 28724 ft | 502 kts | 90° |
| 2026-05-07 08:11 | 40.44041 | 115.39884 | 28216 ft | 495 kts | 90° |
| 2026-05-07 08:11 | 40.43799 | 115.44367 | 27713 ft | 489 kts | 90° |
| 2026-05-07 08:11 | 40.43237 | 115.48760 | 27240 ft | 489 kts | 103° |
| 2026-05-07 08:11 | 40.41851 | 115.52839 | 26743 ft | 488 kts | 120° |
| 2026-05-07 08:12 | 40.39708 | 115.56277 | 26249 ft | 485 kts | 137° |
| 2026-05-07 08:12 | 40.37016 | 115.58779 | 25771 ft | 477 kts | 154° |
| 2026-05-07 08:12 | 40.33953 | 115.60359 | 25276 ft | 470 kts | 164° |
| 2026-05-07 08:12 | 40.30844 | 115.61747 | 24760 ft | 466 kts | 162° |
| 2026-05-07 08:13 | 40.27869 | 115.63249 | 24270 ft | 463 kts | 159° |
| 2026-05-07 08:13 | 40.24907 | 115.64892 | 23764 ft | 460 kts | 157° |
| 2026-05-07 08:13 | 40.21979 | 115.66607 | 23196 ft | 456 kts | 156° |
| 2026-05-07 08:13 | 40.19106 | 115.68343 | 22680 ft | 451 kts | 156° |
| 2026-05-07 08:14 | 40.16274 | 115.70080 | 22175 ft | 447 kts | 156° |
| 2026-05-07 08:14 | 40.13508 | 115.71788 | 21675 ft | 443 kts | 155° |
| 2026-05-07 08:14 | 40.10735 | 115.73509 | 21169 ft | 438 kts | 155° |
| 2026-05-07 08:14 | 40.07986 | 115.75214 | 20667 ft | 434 kts | 155° |
| 2026-05-07 08:15 | 40.05268 | 115.76904 | 20181 ft | 430 kts | 155° |
| 2026-05-07 08:15 | 40.02573 | 115.78582 | 19677 ft | 426 kts | 155° |
| 2026-05-07 08:15 | 39.99912 | 115.80238 | 19193 ft | 421 kts | 155° |
| 2026-05-07 08:15 | 39.97306 | 115.81857 | 18715 ft | 418 kts | 154° |
| 2026-05-07 08:16 | 39.94683 | 115.83485 | 18205 ft | 415 kts | 154° |
| 2026-05-07 08:16 | 39.92084 | 115.85096 | 17701 ft | 411 kts | 154° |
| 2026-05-07 08:16 | 39.89512 | 115.86688 | 17202 ft | 405 kts | 154° |
| 2026-05-07 08:16 | 39.86983 | 115.88258 | 16742 ft | 400 kts | 154° |
| 2026-05-07 08:17 | 39.84507 | 115.89792 | 16272 ft | 396 kts | 154° |
| 2026-05-07 08:17 | 39.82035 | 115.91319 | 15819 ft | 391 kts | 154° |
| 2026-05-07 08:17 | 39.79590 | 115.92853 | 15349 ft | 387 kts | 152° |
| 2026-05-07 08:17 | 39.77428 | 115.94889 | 14886 ft | 381 kts | 131° |
| 2026-05-07 08:18 | 39.75979 | 115.97697 | 14452 ft | 371 kts | 113° |
| 2026-05-07 08:18 | 39.74905 | 116.00720 | 13993 ft | 366 kts | 110° |
| 2026-05-07 08:18 | 39.73881 | 116.03699 | 13534 ft | 362 kts | 110° |
| 2026-05-07 08:18 | 39.72848 | 116.06667 | 13042 ft | 359 kts | 111° |
| 2026-05-07 08:19 | 39.71812 | 116.09609 | 12583 ft | 355 kts | 111° |
| 2026-05-07 08:19 | 39.70784 | 116.12505 | 12142 ft | 350 kts | 111° |
| 2026-05-07 08:19 | 39.69783 | 116.15316 | 11736 ft | 345 kts | 111° |
| 2026-05-07 08:19 | 39.68772 | 116.18141 | 11316 ft | 341 kts | 111° |
| 2026-05-07 08:20 | 39.67777 | 116.20920 | 10900 ft | 337 kts | 112° |
| 2026-05-07 08:20 | 39.66797 | 116.23648 | 10642 ft | 327 kts | 112° |
| 2026-05-07 08:20 | 39.65851 | 116.26276 | 10506 ft | 315 kts | 112° |
| 2026-05-07 08:20 | 39.64950 | 116.28780 | 10378 ft | 303 kts | 112° |
| 2026-05-07 08:21 | 39.64070 | 116.31226 | 10251 ft | 293 kts | 111° |
| 2026-05-07 08:21 | 39.63220 | 116.33590 | 10127 ft | 283 kts | 111° |
| 2026-05-07 08:21 | 39.62409 | 116.35838 | 9991 ft | 274 kts | 111° |
| 2026-05-07 08:21 | 39.61611 | 116.38045 | 9858 ft | 265 kts | 111° |
| 2026-05-07 08:22 | 39.60930 | 116.40223 | 9653 ft | 256 kts | 99° |
| 2026-05-07 08:22 | 39.60923 | 116.42454 | 9458 ft | 244 kts | 71° |
| 2026-05-07 08:22 | 39.61399 | 116.44552 | 9236 ft | 241 kts | 66° |
| 2026-05-07 08:22 | 39.61933 | 116.46618 | 9011 ft | 241 kts | 66° |
| 2026-05-07 08:23 | 39.62454 | 116.48655 | 8798 ft | 240 kts | 66° |
| 2026-05-07 08:23 | 39.62974 | 116.50721 | 8580 ft | 240 kts | 67° |
| 2026-05-07 08:23 | 39.63486 | 116.52780 | 8363 ft | 239 kts | 67° |
| 2026-05-07 08:23 | 39.63994 | 116.54840 | 8146 ft | 239 kts | 68° |
| 2026-05-07 08:24 | 39.64500 | 116.56896 | 7935 ft | 239 kts | 68° |
| 2026-05-07 08:24 | 39.65005 | 116.58951 | 7716 ft | 237 kts | 68° |
| 2026-05-07 08:24 | 39.65511 | 116.60921 | 7602 ft | 228 kts | 64° |
| 2026-05-07 08:24 | 39.66359 | 116.62575 | 7440 ft | 213 kts | 37° |
| 2026-05-07 08:25 | 39.67623 | 116.63388 | 7271 ft | 198 kts | 2° |
| 2026-05-07 08:25 | 39.68947 | 116.63408 | 7218 ft | 183 kts | 354° |
| 2026-05-07 08:25 | 39.70168 | 116.63271 | 7070 ft | 175 kts | 351° |
| 2026-05-07 08:25 | 39.71370 | 116.63090 | 6829 ft | 172 kts | 351° |
| 2026-05-07 08:26 | 39.73833 | 116.62700 | 6652 ft | 185 kts | 351° |
| 2026-05-07 08:26 | 39.75102 | 116.62495 | 6493 ft | 186 kts | 351° |
| 2026-05-07 08:26 | 39.76395 | 116.62289 | 6265 ft | 187 kts | 351° |
| 2026-05-07 08:27 | 39.77685 | 116.62088 | 5995 ft | 187 kts | 351° |
| 2026-05-07 08:27 | 39.78976 | 116.61883 | 5700 ft | 187 kts | 351° |
| 2026-05-07 08:27 | 39.80271 | 116.61682 | 5427 ft | 185 kts | 351° |
| 2026-05-07 08:27 | 39.81542 | 116.61482 | 5180 ft | 188 kts | 351° |
| 2026-05-07 08:28 | 39.82846 | 116.61281 | 4907 ft | 187 kts | 352° |
| 2026-05-07 08:28 | 39.84132 | 116.61077 | 4643 ft | 187 kts | 352° |
| 2026-05-07 08:28 | 39.85411 | 116.60878 | 4430 ft | 185 kts | 351° |
| 2026-05-07 08:28 | 39.86677 | 116.60677 | 4178 ft | 185 kts | 351° |
| 2026-05-07 08:29 | 39.87875 | 116.60492 | 3920 ft | 186 kts | 351° |
| 2026-05-07 08:29 | 39.89153 | 116.60288 | 3684 ft | 185 kts | 351° |
| 2026-05-07 08:29 | 39.90430 | 116.60087 | 3439 ft | 183 kts | 352° |
| 2026-05-07 08:29 | 39.90840 | 116.60023 | 3381 ft | 182 kts | 352° |
| 2026-05-07 08:30 | 39.91378 | 116.59938 | 3245 ft | 180 kts | 352° |
| 2026-05-07 08:30 | 39.92611 | 116.59744 | 3022 ft | 176 kts | 352° |
| 2026-05-07 08:30 | 39.93805 | 116.59558 | 2792 ft | 167 kts | 352° |
| 2026-05-07 08:30 | 39.94920 | 116.59380 | 2580 ft | 161 kts | 352° |
| 2026-05-07 08:31 | 39.96025 | 116.59208 | 2368 ft | 157 kts | 351° |
| 2026-05-07 08:31 | 39.97112 | 116.59035 | 2145 ft | 156 kts | 351° |
| 2026-05-07 08:31 | 39.98193 | 116.58863 | 1929 ft | 153 kts | 351° |
| 2026-05-07 08:31 | 39.99228 | 116.58704 | 1753 ft | 146 kts | 352° |
| 2026-05-07 08:32 | 40.00203 | 116.58546 | 1540 ft | 139 kts | 352° |
| 2026-05-07 08:32 | 40.01127 | 116.58400 | 1363 ft | 130 kts | 352° |
| 2026-05-07 08:32 | 40.02024 | 116.58258 | 1201 ft | 130 kts | 352° |
| 2026-05-07 08:32 | 40.02931 | 116.58116 | 1037 ft | 131 kts | 351° |
| 2026-05-07 08:33 | 40.03826 | 116.57974 | 845 ft | 130 kts | 351° |
| 2026-05-07 08:33 | 40.04715 | 116.57834 | 627 ft | 127 kts | 351° |
| 2026-05-07 08:33 | 40.05597 | 116.57694 | 490 ft | 131 kts | 352° |
| 2026-05-07 08:33 | 40.06508 | 116.57562 | 323 ft | 137 kts | 350° |
| 2026-05-07 08:34 | 40.07457 | 116.57405 | 149 ft | 131 kts | 351° |
| 2026-05-07 08:34 | 40.08294 | 116.57274 | 128 ft | 106 kts | 353° |
| 2026-05-07 08:34 | 40.08937 | 116.57175 | 128 ft | 84 kts | 353° |
| 2026-05-07 08:34 | 40.09415 | 116.57100 | 127 ft | 49 kts | 353° |
| 2026-05-07 08:35 | 40.09734 | 116.57048 | 127 ft | 44 kts | 353° |
| 2026-05-07 08:35 | 40.09943 | 116.57014 | 126 ft | 12 kts | 353° |
| 2026-05-07 08:35 | 40.10006 | 116.57050 | 126 ft | 10 kts | 63° |
| 2026-05-07 08:35 | 40.10019 | 116.57153 | 131 ft | 11 kts | 81° |
| 2026-05-07 08:36 | 40.10001 | 116.57228 | 125 ft | 9 kts | 149° |
| 2026-05-07 08:36 | 40.09928 | 116.57245 | 128 ft | 12 kts | 174° |
| 2026-05-07 08:36 | 40.09834 | 116.57257 | 128 ft | 16 kts | 174° |
| 2026-05-07 08:36 | 40.09718 | 116.57274 | 128 ft | 19 kts | 174° |
| 2026-05-07 08:37 | 40.09581 | 116.57295 | 128 ft | 21 kts | 173° |
| 2026-05-07 08:37 | 40.09422 | 116.57318 | 128 ft | 24 kts | 174° |
| 2026-05-07 08:37 | 40.09247 | 116.57345 | 125 ft | 26 kts | 172° |
| 2026-05-07 08:37 | 40.09078 | 116.57375 | 126 ft | 23 kts | 172° |
| 2026-05-07 08:38 | 40.08939 | 116.57397 | 128 ft | 19 kts | 173° |
| 2026-05-07 08:38 | 40.08850 | 116.57415 | 128 ft | 9 kts | 157° |
| 2026-05-07 08:38 | 40.08835 | 116.57490 | 129 ft | 11 kts | 84° |
| 2026-05-07 08:38 | 40.08849 | 116.57638 | 129 ft | 21 kts | 83° |
| 2026-05-07 08:39 | 40.08868 | 116.57843 | 131 ft | 24 kts | 83° |
| 2026-05-07 08:39 | 40.08889 | 116.58072 | 127 ft | 27 kts | 83° |
| 2026-05-07 08:39 | 40.08913 | 116.58324 | 129 ft | 29 kts | 83° |
| 2026-05-07 08:39 | 40.08938 | 116.58595 | 130 ft | 29 kts | 83° |
| 2026-05-07 08:40 | 40.08957 | 116.58813 | 126 ft | 24 kts | 83° |
| 2026-05-07 08:40 | 40.08974 | 116.59004 | 127 ft | 12 kts | 83° |
| 2026-05-07 08:40 | 40.08953 | 116.59070 | 126 ft | 9 kts | 149° |
| 2026-05-07 08:40 | 40.08876 | 116.59086 | 128 ft | 14 kts | 175° |
| 2026-05-07 08:41 | 40.08760 | 116.59103 | 127 ft | 19 kts | 173° |
| 2026-05-07 08:41 | 40.08618 | 116.59122 | 128 ft | 22 kts | 174° |
| 2026-05-07 08:41 | 40.08480 | 116.59141 | 127 ft | 17 kts | 171° |
| 2026-05-07 08:41 | 40.08388 | 116.59164 | 126 ft | 10 kts | 154° |
| 2026-05-07 08:42 | 40.08372 | 116.59252 | 128 ft | 12 kts | 84° |
| 2026-05-07 08:42 | 40.08385 | 116.59391 | 129 ft | 20 kts | 83° |
| 2026-05-07 08:42 | 40.08402 | 116.59574 | 131 ft | 21 kts | 83° |
| 2026-05-07 08:42 | 40.08417 | 116.59741 | 129 ft | 15 kts | 83° |
| 2026-05-07 08:43 | 40.08380 | 116.59809 | 125 ft | 10 kts | 168° |
| 2026-05-07 08:43 | 40.08290 | 116.59820 | 126 ft | 16 kts | 174° |
| 2026-05-07 08:43 | 40.08169 | 116.59837 | 128 ft | 17 kts | 174° |
| 2026-05-07 08:43 | 40.08105 | 116.59890 | 128 ft | 11 kts | 102° |
| 2026-05-07 08:44 | 40.08113 | 116.60016 | 131 ft | 19 kts | 83° |
| 2026-05-07 08:44 | 40.08130 | 116.60203 | 128 ft | 22 kts | 82° |
| 2026-05-07 08:44 | 40.08149 | 116.60417 | 128 ft | 25 kts | 83° |
| 2026-05-07 08:44 | 40.08168 | 116.60624 | 126 ft | 21 kts | 83° |
| 2026-05-07 08:45 | 40.08186 | 116.60816 | 130 ft | 23 kts | 83° |
| 2026-05-07 08:45 | 40.08202 | 116.60982 | 130 ft | 13 kts | 83° |
| 2026-05-07 08:45 | 40.08178 | 116.61063 | 126 ft | 10 kts | 159° |
| 2026-05-07 08:45 | 40.08095 | 116.61069 | 126 ft | 14 kts | 177° |
| 2026-05-07 08:46 | 40.07989 | 116.61084 | 127 ft | 17 kts | 173° |
| 2026-05-07 08:46 | 40.07865 | 116.61104 | 126 ft | 19 kts | 173° |
| 2026-05-07 08:46 | 40.07766 | 116.61117 | 127 ft | 8 kts | 184° |
| 2026-05-07 08:46 | 40.07721 | 116.61072 | 126 ft | 10 kts | 232° |
| 2026-05-07 08:47 | 40.07675 | 116.60990 | 124 ft | 13 kts | 232° |
| 2026-05-07 08:47 | 40.07615 | 116.60924 | 125 ft | 7 kts | 209° |
| 2026-05-07 08:47 | 40.07586 | 116.60892 | 125 ft | 5 kts | 246° |
| 2026-05-07 08:47 | 40.07590 | 116.60849 | 125 ft | 6 kts | 284° |
| 2026-05-07 08:48 | 40.07602 | 116.60805 | 126 ft | 0 kts | 290° |
| 2026-05-07 08:48 | 40.07604 | 116.60798 | 125 ft | 2 kts | 290° |
| 2026-05-07 08:48 | 40.07606 | 116.60792 | 126 ft | 0 kts | 290° |